sensor_id;sensor_type;location;lat;lon;timestamp;P1;durP1;ratioP1;P2;durP2;ratioP2
12577;SDS011;6354;51.026;8.968;2023-04-06T00:00:50;982.67;;;881.27;;
12577;SDS011;6354;51.026;8.968;2023-04-06T00:03:18;1849.60;;;966.80;;
12577;SDS011;6354;51.026;8.968;2023-04-06T00:05:48;868.43;;;782.83;;
12577;SDS011;6354;51.026;8.968;2023-04-06T00:08:16;980.33;;;875.27;;
12577;SDS011;6354;51.026;8.968;2023-04-06T00:10:44;840.20;;;770.80;;
12577;SDS011;6354;51.026;8.968;2023-04-06T00:13:12;892.23;;;804.70;;
12577;SDS011;6354;51.026;8.968;2023-04-06T00:15:40;917.23;;;827.70;;
12577;SDS011;6354;51.026;8.968;2023-04-06T00:18:08;763.23;;;689.57;;
12577;SDS011;6354;51.026;8.968;2023-04-06T00:20:36;1152.63;;;882.53;;
12577;SDS011;6354;51.026;8.968;2023-04-06T00:23:06;968.97;;;873.57;;
12577;SDS011;6354;51.026;8.968;2023-04-06T00:25:34;837.50;;;769.47;;
12577;SDS011;6354;51.026;8.968;2023-04-06T00:28:02;749.17;;;689.17;;
12577;SDS011;6354;51.026;8.968;2023-04-06T00:30:30;813.77;;;743.60;;
12577;SDS011;6354;51.026;8.968;2023-04-06T00:32:58;891.33;;;810.07;;
12577;SDS011;6354;51.026;8.968;2023-04-06T00:35:27;871.67;;;785.23;;
12577;SDS011;6354;51.026;8.968;2023-04-06T00:37:55;743.23;;;677.27;;
12577;SDS011;6354;51.026;8.968;2023-04-06T00:40:24;794.27;;;717.50;;
12577;SDS011;6354;51.026;8.968;2023-04-06T00:42:54;922.53;;;837.10;;
12577;SDS011;6354;51.026;8.968;2023-04-06T00:45:22;1028.63;;;743.87;;
12577;SDS011;6354;51.026;8.968;2023-04-06T00:47:50;790.13;;;719.77;;
12577;SDS011;6354;51.026;8.968;2023-04-06T00:50:19;878.40;;;784.70;;
12577;SDS011;6354;51.026;8.968;2023-04-06T00:52:47;585.63;;;538.97;;
12577;SDS011;6354;51.026;8.968;2023-04-06T00:55:15;608.30;;;553.00;;
12577;SDS011;6354;51.026;8.968;2023-04-06T00:57:44;899.83;;;811.80;;
12577;SDS011;6354;51.026;8.968;2023-04-06T01:00:12;1999.90;;;999.90;;
12577;SDS011;6354;51.026;8.968;2023-04-06T01:02:41;1145.03;;;781.20;;
12577;SDS011;6354;51.026;8.968;2023-04-06T01:05:11;874.33;;;788.47;;
12577;SDS011;6354;51.026;8.968;2023-04-06T01:07:39;725.87;;;658.20;;
12577;SDS011;6354;51.026;8.968;2023-04-06T01:10:07;846.23;;;767.80;;
12577;SDS011;6354;51.026;8.968;2023-04-06T01:12:36;809.27;;;732.37;;
12577;SDS011;6354;51.026;8.968;2023-04-06T01:15:07;1009.20;;;783.30;;
12577;SDS011;6354;51.026;8.968;2023-04-06T01:17:36;735.77;;;666.53;;
12577;SDS011;6354;51.026;8.968;2023-04-06T01:20:05;692.20;;;634.97;;
12577;SDS011;6354;51.026;8.968;2023-04-06T01:22:35;1108.63;;;654.33;;
12577;SDS011;6354;51.026;8.968;2023-04-06T01:25:03;900.37;;;735.93;;
12577;SDS011;6354;51.026;8.968;2023-04-06T01:27:32;674.43;;;605.30;;
12577;SDS011;6354;51.026;8.968;2023-04-06T01:30:00;1209.00;;;877.30;;
12577;SDS011;6354;51.026;8.968;2023-04-06T01:32:28;1020.03;;;762.73;;
12577;SDS011;6354;51.026;8.968;2023-04-06T01:34:56;1529.87;;;802.50;;
12577;SDS011;6354;51.026;8.968;2023-04-06T01:37:24;672.67;;;609.63;;
12577;SDS011;6354;51.026;8.968;2023-04-06T01:39:53;777.13;;;607.57;;
12577;SDS011;6354;51.026;8.968;2023-04-06T01:42:21;1484.77;;;870.33;;
12577;SDS011;6354;51.026;8.968;2023-04-06T01:44:49;1089.27;;;701.50;;
12577;SDS011;6354;51.026;8.968;2023-04-06T01:47:17;1138.83;;;697.93;;
12577;SDS011;6354;51.026;8.968;2023-04-06T01:49:45;721.70;;;592.03;;
12577;SDS011;6354;51.026;8.968;2023-04-06T01:52:13;1999.90;;;886.37;;
12577;SDS011;6354;51.026;8.968;2023-04-06T01:54:41;1058.43;;;781.23;;
12577;SDS011;6354;51.026;8.968;2023-04-06T01:57:11;1231.47;;;770.70;;
12577;SDS011;6354;51.026;8.968;2023-04-06T01:59:39;1213.97;;;928.87;;
12577;SDS011;6354;51.026;8.968;2023-04-06T02:02:07;588.70;;;535.40;;
12577;SDS011;6354;51.026;8.968;2023-04-06T02:04:35;1118.80;;;827.10;;
12577;SDS011;6354;51.026;8.968;2023-04-06T02:07:03;1987.40;;;911.50;;
12577;SDS011;6354;51.026;8.968;2023-04-06T02:09:31;833.83;;;695.93;;
12577;SDS011;6354;51.026;8.968;2023-04-06T02:11:59;1999.90;;;999.90;;
12577;SDS011;6354;51.026;8.968;2023-04-06T02:14:29;945.57;;;847.07;;
12577;SDS011;6354;51.026;8.968;2023-04-06T02:16:57;837.17;;;757.37;;
12577;SDS011;6354;51.026;8.968;2023-04-06T02:19:24;834.47;;;760.63;;
12577;SDS011;6354;51.026;8.968;2023-04-06T02:21:53;861.27;;;770.43;;
12577;SDS011;6354;51.026;8.968;2023-04-06T02:24:21;691.33;;;619.13;;
12577;SDS011;6354;51.026;8.968;2023-04-06T02:26:49;1090.73;;;854.80;;
12577;SDS011;6354;51.026;8.968;2023-04-06T02:29:17;757.07;;;684.53;;
12577;SDS011;6354;51.026;8.968;2023-04-06T02:31:46;1429.87;;;972.00;;
12577;SDS011;6354;51.026;8.968;2023-04-06T02:34:14;1294.77;;;814.83;;
12577;SDS011;6354;51.026;8.968;2023-04-06T02:36:44;783.53;;;692.97;;
12577;SDS011;6354;51.026;8.968;2023-04-06T02:39:12;1612.87;;;847.33;;
12577;SDS011;6354;51.026;8.968;2023-04-06T02:41:41;1841.77;;;808.87;;
12577;SDS011;6354;51.026;8.968;2023-04-06T02:44:09;944.83;;;704.07;;
12577;SDS011;6354;51.026;8.968;2023-04-06T02:46:37;825.73;;;750.43;;
12577;SDS011;6354;51.026;8.968;2023-04-06T02:49:06;765.17;;;684.00;;
12577;SDS011;6354;51.026;8.968;2023-04-06T02:51:34;775.77;;;696.70;;
12577;SDS011;6354;51.026;8.968;2023-04-06T02:54:02;1663.60;;;774.47;;
12577;SDS011;6354;51.026;8.968;2023-04-06T02:56:31;799.87;;;725.57;;
12577;SDS011;6354;51.026;8.968;2023-04-06T02:58:59;883.00;;;792.17;;
12577;SDS011;6354;51.026;8.968;2023-04-06T03:01:27;721.50;;;653.10;;
12577;SDS011;6354;51.026;8.968;2023-04-06T03:03:55;823.57;;;666.37;;
12577;SDS011;6354;51.026;8.968;2023-04-06T03:06:24;925.20;;;823.03;;
12577;SDS011;6354;51.026;8.968;2023-04-06T03:08:52;765.43;;;681.43;;
12577;SDS011;6354;51.026;8.968;2023-04-06T03:11:20;678.67;;;609.07;;
12577;SDS011;6354;51.026;8.968;2023-04-06T03:13:48;598.27;;;548.83;;
12577;SDS011;6354;51.026;8.968;2023-04-06T03:16:16;408.87;;;378.27;;
12577;SDS011;6354;51.026;8.968;2023-04-06T03:18:44;637.17;;;581.93;;
12577;SDS011;6354;51.026;8.968;2023-04-06T03:21:13;875.17;;;789.50;;
12577;SDS011;6354;51.026;8.968;2023-04-06T03:23:43;840.53;;;761.00;;
12577;SDS011;6354;51.026;8.968;2023-04-06T03:26:11;860.87;;;777.40;;
12577;SDS011;6354;51.026;8.968;2023-04-06T03:28:39;949.07;;;856.17;;
12577;SDS011;6354;51.026;8.968;2023-04-06T03:31:07;940.60;;;848.07;;
12577;SDS011;6354;51.026;8.968;2023-04-06T03:33:36;1739.20;;;996.73;;
12577;SDS011;6354;51.026;8.968;2023-04-06T03:36:04;836.43;;;750.93;;
12577;SDS011;6354;51.026;8.968;2023-04-06T03:38:33;527.27;;;479.23;;
12577;SDS011;6354;51.026;8.968;2023-04-06T03:41:04;784.10;;;714.37;;
12577;SDS011;6354;51.026;8.968;2023-04-06T03:43:32;993.67;;;868.00;;
12577;SDS011;6354;51.026;8.968;2023-04-06T03:46:00;1681.73;;;998.77;;
12577;SDS011;6354;51.026;8.968;2023-04-06T03:48:28;916.17;;;818.10;;
12577;SDS011;6354;51.026;8.968;2023-04-06T03:50:57;856.93;;;776.80;;
12577;SDS011;6354;51.026;8.968;2023-04-06T03:53:25;901.30;;;782.63;;
12577;SDS011;6354;51.026;8.968;2023-04-06T03:55:53;939.77;;;845.40;;
12577;SDS011;6354;51.026;8.968;2023-04-06T03:58:22;531.53;;;483.37;;
12577;SDS011;6354;51.026;8.968;2023-04-06T04:00:50;478.13;;;439.67;;
12577;SDS011;6354;51.026;8.968;2023-04-06T04:03:18;467.23;;;427.87;;
12577;SDS011;6354;51.026;8.968;2023-04-06T04:05:48;854.83;;;768.47;;
12577;SDS011;6354;51.026;8.968;2023-04-06T04:08:15;601.53;;;547.67;;
12577;SDS011;6354;51.026;8.968;2023-04-06T04:10:43;589.20;;;532.67;;
12577;SDS011;6354;51.026;8.968;2023-04-06T04:13:11;622.60;;;570.20;;
12577;SDS011;6354;51.026;8.968;2023-04-06T04:15:41;765.83;;;688.20;;
12577;SDS011;6354;51.026;8.968;2023-04-06T04:18:09;1999.90;;;914.97;;
12577;SDS011;6354;51.026;8.968;2023-04-06T04:20:37;730.17;;;657.47;;
12577;SDS011;6354;51.026;8.968;2023-04-06T04:23:05;885.33;;;797.13;;
12577;SDS011;6354;51.026;8.968;2023-04-06T04:25:33;952.23;;;618.57;;
12577;SDS011;6354;51.026;8.968;2023-04-06T04:28:01;878.27;;;794.97;;
12577;SDS011;6354;51.026;8.968;2023-04-06T04:30:29;1214.43;;;852.20;;
12577;SDS011;6354;51.026;8.968;2023-04-06T04:32:58;881.10;;;743.10;;
12577;SDS011;6354;51.026;8.968;2023-04-06T04:35:26;845.47;;;753.90;;
12577;SDS011;6354;51.026;8.968;2023-04-06T04:37:54;1298.20;;;837.10;;
12577;SDS011;6354;51.026;8.968;2023-04-06T04:40:22;660.53;;;603.50;;
12577;SDS011;6354;51.026;8.968;2023-04-06T04:42:50;802.57;;;723.87;;
12577;SDS011;6354;51.026;8.968;2023-04-06T04:45:18;742.30;;;670.17;;
12577;SDS011;6354;51.026;8.968;2023-04-06T04:47:46;520.90;;;468.87;;
12577;SDS011;6354;51.026;8.968;2023-04-06T04:50:16;480.27;;;437.40;;
12577;SDS011;6354;51.026;8.968;2023-04-06T04:52:44;1009.17;;;899.63;;
12577;SDS011;6354;51.026;8.968;2023-04-06T04:55:12;756.90;;;676.80;;
12577;SDS011;6354;51.026;8.968;2023-04-06T04:57:40;630.40;;;578.60;;
12577;SDS011;6354;51.026;8.968;2023-04-06T05:00:09;435.80;;;399.73;;
12577;SDS011;6354;51.026;8.968;2023-04-06T05:02:38;506.50;;;462.20;;
12577;SDS011;6354;51.026;8.968;2023-04-06T05:05:06;666.23;;;603.80;;
12577;SDS011;6354;51.026;8.968;2023-04-06T05:07:36;755.30;;;682.23;;
12577;SDS011;6354;51.026;8.968;2023-04-06T05:10:05;560.77;;;513.53;;
12577;SDS011;6354;51.026;8.968;2023-04-06T05:12:34;586.67;;;526.80;;
12577;SDS011;6354;51.026;8.968;2023-04-06T05:15:02;629.83;;;577.60;;
12577;SDS011;6354;51.026;8.968;2023-04-06T05:17:30;645.17;;;581.17;;
12577;SDS011;6354;51.026;8.968;2023-04-06T05:19:59;578.17;;;529.47;;
12577;SDS011;6354;51.026;8.968;2023-04-06T05:22:27;653.67;;;593.67;;
12577;SDS011;6354;51.026;8.968;2023-04-06T05:24:56;604.13;;;551.83;;
12577;SDS011;6354;51.026;8.968;2023-04-06T05:27:24;581.77;;;531.23;;
12577;SDS011;6354;51.026;8.968;2023-04-06T05:29:52;624.13;;;560.63;;
12577;SDS011;6354;51.026;8.968;2023-04-06T05:32:23;604.80;;;545.17;;
12577;SDS011;6354;51.026;8.968;2023-04-06T05:34:51;657.70;;;589.80;;
12577;SDS011;6354;51.026;8.968;2023-04-06T05:37:19;624.87;;;570.60;;
12577;SDS011;6354;51.026;8.968;2023-04-06T05:39:47;732.23;;;671.97;;
12577;SDS011;6354;51.026;8.968;2023-04-06T05:42:16;572.87;;;531.03;;
12577;SDS011;6354;51.026;8.968;2023-04-06T05:44:44;894.43;;;807.60;;
12577;SDS011;6354;51.026;8.968;2023-04-06T05:47:12;793.50;;;722.27;;
12577;SDS011;6354;51.026;8.968;2023-04-06T05:49:41;719.30;;;655.97;;
12577;SDS011;6354;51.026;8.968;2023-04-06T05:52:09;1189.13;;;850.47;;
12577;SDS011;6354;51.026;8.968;2023-04-06T05:54:37;955.53;;;851.30;;
12577;SDS011;6354;51.026;8.968;2023-04-06T05:57:05;1051.67;;;892.73;;
12577;SDS011;6354;51.026;8.968;2023-04-06T05:59:34;855.87;;;771.57;;
12577;SDS011;6354;51.026;8.968;2023-04-06T06:02:03;1093.73;;;903.27;;
12577;SDS011;6354;51.026;8.968;2023-04-06T06:04:31;1664.57;;;999.90;;
12577;SDS011;6354;51.026;8.968;2023-04-06T06:06:59;1456.63;;;986.20;;
12577;SDS011;6354;51.026;8.968;2023-04-06T06:09:27;1081.43;;;800.50;;
12577;SDS011;6354;51.026;8.968;2023-04-06T06:11:55;1039.10;;;851.03;;
12577;SDS011;6354;51.026;8.968;2023-04-06T06:14:23;829.20;;;746.10;;
12577;SDS011;6354;51.026;8.968;2023-04-06T06:16:52;960.07;;;825.67;;
12577;SDS011;6354;51.026;8.968;2023-04-06T06:19:20;794.27;;;666.60;;
12577;SDS011;6354;51.026;8.968;2023-04-06T06:21:48;859.97;;;772.37;;
12577;SDS011;6354;51.026;8.968;2023-04-06T06:24:16;980.77;;;872.50;;
12577;SDS011;6354;51.026;8.968;2023-04-06T06:26:44;884.87;;;794.57;;
12577;SDS011;6354;51.026;8.968;2023-04-06T06:29:12;1496.90;;;999.90;;
12577;SDS011;6354;51.026;8.968;2023-04-06T06:31:40;1999.90;;;999.90;;
12577;SDS011;6354;51.026;8.968;2023-04-06T06:34:10;1999.90;;;999.90;;
12577;SDS011;6354;51.026;8.968;2023-04-06T06:36:39;1999.90;;;999.90;;
12577;SDS011;6354;51.026;8.968;2023-04-06T06:39:07;1999.90;;;999.90;;
12577;SDS011;6354;51.026;8.968;2023-04-06T06:41:35;1999.90;;;690.43;;
12577;SDS011;6354;51.026;8.968;2023-04-06T06:44:03;1999.90;;;893.37;;
12577;SDS011;6354;51.026;8.968;2023-04-06T06:46:32;1999.90;;;966.80;;
12577;SDS011;6354;51.026;8.968;2023-04-06T06:49:00;1999.90;;;845.67;;
12577;SDS011;6354;51.026;8.968;2023-04-06T06:51:30;1999.90;;;917.70;;
12577;SDS011;6354;51.026;8.968;2023-04-06T06:53:58;1999.90;;;802.73;;
12577;SDS011;6354;51.026;8.968;2023-04-06T06:56:26;1999.90;;;826.90;;
12577;SDS011;6354;51.026;8.968;2023-04-06T06:58:54;1999.90;;;868.60;;
12577;SDS011;6354;51.026;8.968;2023-04-06T07:01:22;1999.90;;;798.27;;
12577;SDS011;6354;51.026;8.968;2023-04-06T07:03:51;1999.90;;;838.27;;
12577;SDS011;6354;51.026;8.968;2023-04-06T07:06:19;1999.90;;;888.03;;
12577;SDS011;6354;51.026;8.968;2023-04-06T07:08:48;1999.90;;;925.83;;
12577;SDS011;6354;51.026;8.968;2023-04-06T07:11:17;1999.90;;;805.40;;
12577;SDS011;6354;51.026;8.968;2023-04-06T07:13:45;1999.90;;;970.50;;
12577;SDS011;6354;51.026;8.968;2023-04-06T07:16:13;1999.90;;;852.80;;
12577;SDS011;6354;51.026;8.968;2023-04-06T07:18:41;1999.90;;;878.63;;
12577;SDS011;6354;51.026;8.968;2023-04-06T07:21:09;1999.90;;;886.17;;
12577;SDS011;6354;51.026;8.968;2023-04-06T07:23:37;1999.90;;;906.60;;
12577;SDS011;6354;51.026;8.968;2023-04-06T07:26:07;1999.90;;;956.10;;
12577;SDS011;6354;51.026;8.968;2023-04-06T07:28:35;1999.90;;;837.03;;
12577;SDS011;6354;51.026;8.968;2023-04-06T07:31:03;1999.90;;;940.73;;
12577;SDS011;6354;51.026;8.968;2023-04-06T07:33:32;1999.90;;;999.27;;
12577;SDS011;6354;51.026;8.968;2023-04-06T07:36:00;1999.90;;;921.87;;
12577;SDS011;6354;51.026;8.968;2023-04-06T07:38:28;1999.90;;;982.53;;
12577;SDS011;6354;51.026;8.968;2023-04-06T07:40:56;1999.90;;;971.00;;
12577;SDS011;6354;51.026;8.968;2023-04-06T07:43:26;1999.90;;;999.90;;
12577;SDS011;6354;51.026;8.968;2023-04-06T07:45:54;1999.90;;;999.90;;
12577;SDS011;6354;51.026;8.968;2023-04-06T07:48:23;1999.90;;;971.00;;
12577;SDS011;6354;51.026;8.968;2023-04-06T07:50:51;1999.90;;;959.00;;
12577;SDS011;6354;51.026;8.968;2023-04-06T07:53:19;1999.90;;;999.90;;
12577;SDS011;6354;51.026;8.968;2023-04-06T07:55:47;1999.90;;;999.90;;
12577;SDS011;6354;51.026;8.968;2023-04-06T07:58:15;1999.90;;;924.10;;
12577;SDS011;6354;51.026;8.968;2023-04-06T08:00:45;1999.90;;;987.63;;
12577;SDS011;6354;51.026;8.968;2023-04-06T08:03:12;1999.90;;;960.20;;
12577;SDS011;6354;51.026;8.968;2023-04-06T08:05:41;1999.90;;;982.33;;
12577;SDS011;6354;51.026;8.968;2023-04-06T08:08:09;1999.90;;;930.70;;
12577;SDS011;6354;51.026;8.968;2023-04-06T08:10:37;1999.90;;;992.23;;
12577;SDS011;6354;51.026;8.968;2023-04-06T08:13:05;1999.90;;;999.90;;
12577;SDS011;6354;51.026;8.968;2023-04-06T08:15:34;1999.90;;;999.90;;
12577;SDS011;6354;51.026;8.968;2023-04-06T08:18:04;1999.90;;;999.90;;
12577;SDS011;6354;51.026;8.968;2023-04-06T08:20:32;1999.90;;;999.90;;
12577;SDS011;6354;51.026;8.968;2023-04-06T08:23:00;1999.90;;;999.90;;
12577;SDS011;6354;51.026;8.968;2023-04-06T08:25:29;1999.90;;;999.90;;
12577;SDS011;6354;51.026;8.968;2023-04-06T08:27:57;1999.90;;;999.90;;
12577;SDS011;6354;51.026;8.968;2023-04-06T08:30:24;1999.90;;;999.90;;
12577;SDS011;6354;51.026;8.968;2023-04-06T08:32:53;1999.90;;;999.90;;
12577;SDS011;6354;51.026;8.968;2023-04-06T08:35:22;1999.90;;;999.90;;
12577;SDS011;6354;51.026;8.968;2023-04-06T08:37:50;1999.90;;;999.90;;
12577;SDS011;6354;51.026;8.968;2023-04-06T08:40:18;1999.90;;;999.90;;
12577;SDS011;6354;51.026;8.968;2023-04-06T08:42:49;1999.90;;;999.90;;
12577;SDS011;6354;51.026;8.968;2023-04-06T08:45:19;1999.90;;;999.90;;
12577;SDS011;6354;51.026;8.968;2023-04-06T08:47:48;1999.90;;;999.90;;
12577;SDS011;6354;51.026;8.968;2023-04-06T08:50:17;1999.90;;;999.90;;
12577;SDS011;6354;51.026;8.968;2023-04-06T08:52:47;1999.90;;;999.90;;
12577;SDS011;6354;51.026;8.968;2023-04-06T08:55:16;1999.90;;;999.90;;
12577;SDS011;6354;51.026;8.968;2023-04-06T08:57:44;1999.90;;;999.90;;
12577;SDS011;6354;51.026;8.968;2023-04-06T09:00:14;1999.90;;;999.90;;
12577;SDS011;6354;51.026;8.968;2023-04-06T09:02:45;1999.90;;;999.90;;
12577;SDS011;6354;51.026;8.968;2023-04-06T09:05:14;1999.90;;;999.90;;
12577;SDS011;6354;51.026;8.968;2023-04-06T09:07:43;1999.90;;;999.90;;
12577;SDS011;6354;51.026;8.968;2023-04-06T09:10:13;1999.90;;;999.90;;
12577;SDS011;6354;51.026;8.968;2023-04-06T09:12:45;1999.90;;;999.90;;
12577;SDS011;6354;51.026;8.968;2023-04-06T09:15:20;1999.90;;;999.90;;
12577;SDS011;6354;51.026;8.968;2023-04-06T09:17:50;1999.90;;;999.90;;
12577;SDS011;6354;51.026;8.968;2023-04-06T09:20:22;1999.90;;;999.90;;
12577;SDS011;6354;51.026;8.968;2023-04-06T09:22:52;1999.90;;;999.90;;
12577;SDS011;6354;51.026;8.968;2023-04-06T09:25:22;1999.90;;;999.90;;
12577;SDS011;6354;51.026;8.968;2023-04-06T09:27:59;1999.90;;;999.90;;
12577;SDS011;6354;51.026;8.968;2023-04-06T09:30:28;1999.90;;;999.90;;
12577;SDS011;6354;51.026;8.968;2023-04-06T09:32:57;1999.90;;;999.90;;
12577;SDS011;6354;51.026;8.968;2023-04-06T09:35:26;1999.90;;;999.90;;
12577;SDS011;6354;51.026;8.968;2023-04-06T09:37:56;1999.90;;;999.90;;
12577;SDS011;6354;51.026;8.968;2023-04-06T09:40:25;1999.90;;;999.90;;
12577;SDS011;6354;51.026;8.968;2023-04-06T09:42:55;1999.90;;;999.90;;
12577;SDS011;6354;51.026;8.968;2023-04-06T09:45:25;1999.90;;;999.90;;
12577;SDS011;6354;51.026;8.968;2023-04-06T09:47:56;1999.90;;;999.90;;
12577;SDS011;6354;51.026;8.968;2023-04-06T09:50:25;1999.90;;;999.90;;
12577;SDS011;6354;51.026;8.968;2023-04-06T09:52:54;1999.90;;;999.90;;
12577;SDS011;6354;51.026;8.968;2023-04-06T09:55:28;1999.90;;;999.90;;
12577;SDS011;6354;51.026;8.968;2023-04-06T09:58:03;1999.90;;;999.90;;
12577;SDS011;6354;51.026;8.968;2023-04-06T10:00:34;1999.90;;;999.90;;
12577;SDS011;6354;51.026;8.968;2023-04-06T10:03:12;1999.90;;;999.90;;
12577;SDS011;6354;51.026;8.968;2023-04-06T10:05:46;1999.90;;;999.90;;
12577;SDS011;6354;51.026;8.968;2023-04-06T10:08:18;1999.90;;;999.90;;
12577;SDS011;6354;51.026;8.968;2023-04-06T10:10:49;1999.90;;;999.90;;
12577;SDS011;6354;51.026;8.968;2023-04-06T10:13:18;1999.90;;;999.90;;
12577;SDS011;6354;51.026;8.968;2023-04-06T10:15:48;1999.90;;;999.90;;
12577;SDS011;6354;51.026;8.968;2023-04-06T10:18:18;1999.90;;;999.90;;
12577;SDS011;6354;51.026;8.968;2023-04-06T10:20:47;1999.90;;;999.90;;
12577;SDS011;6354;51.026;8.968;2023-04-06T10:23:19;1999.90;;;999.90;;
12577;SDS011;6354;51.026;8.968;2023-04-06T10:25:55;1999.90;;;999.90;;
12577;SDS011;6354;51.026;8.968;2023-04-06T10:28:24;1999.90;;;999.90;;
12577;SDS011;6354;51.026;8.968;2023-04-06T10:30:56;1999.90;;;999.90;;
12577;SDS011;6354;51.026;8.968;2023-04-06T10:33:25;1999.90;;;999.90;;
12577;SDS011;6354;51.026;8.968;2023-04-06T10:35:54;1999.90;;;999.90;;
12577;SDS011;6354;51.026;8.968;2023-04-06T10:38:32;1999.90;;;999.90;;
12577;SDS011;6354;51.026;8.968;2023-04-06T10:41:08;1999.90;;;999.90;;
12577;SDS011;6354;51.026;8.968;2023-04-06T10:43:38;1999.90;;;999.90;;
12577;SDS011;6354;51.026;8.968;2023-04-06T10:46:07;1999.90;;;999.90;;
12577;SDS011;6354;51.026;8.968;2023-04-06T10:48:37;1999.90;;;999.90;;
12577;SDS011;6354;51.026;8.968;2023-04-06T10:51:10;1999.90;;;999.90;;
12577;SDS011;6354;51.026;8.968;2023-04-06T10:53:40;1999.90;;;999.90;;
12577;SDS011;6354;51.026;8.968;2023-04-06T10:56:11;1999.90;;;999.90;;
12577;SDS011;6354;51.026;8.968;2023-04-06T10:58:43;1999.90;;;999.90;;
12577;SDS011;6354;51.026;8.968;2023-04-06T11:01:14;1999.90;;;999.90;;
12577;SDS011;6354;51.026;8.968;2023-04-06T11:03:43;1999.90;;;999.90;;
12577;SDS011;6354;51.026;8.968;2023-04-06T11:06:17;1999.90;;;999.90;;
12577;SDS011;6354;51.026;8.968;2023-04-06T11:08:46;1999.90;;;999.90;;
12577;SDS011;6354;51.026;8.968;2023-04-06T11:11:16;1999.90;;;999.90;;
12577;SDS011;6354;51.026;8.968;2023-04-06T11:13:47;1999.90;;;999.90;;
12577;SDS011;6354;51.026;8.968;2023-04-06T11:16:17;1999.90;;;999.90;;
12577;SDS011;6354;51.026;8.968;2023-04-06T11:18:50;1999.90;;;999.90;;
12577;SDS011;6354;51.026;8.968;2023-04-06T11:21:19;1999.90;;;999.90;;
12577;SDS011;6354;51.026;8.968;2023-04-06T11:24:03;1999.90;;;999.90;;
12577;SDS011;6354;51.026;8.968;2023-04-06T11:26:40;1999.90;;;999.90;;
12577;SDS011;6354;51.026;8.968;2023-04-06T11:29:10;1999.90;;;999.90;;
12577;SDS011;6354;51.026;8.968;2023-04-06T11:31:39;1999.90;;;999.90;;
12577;SDS011;6354;51.026;8.968;2023-04-06T11:34:15;1999.90;;;999.90;;
12577;SDS011;6354;51.026;8.968;2023-04-06T11:36:45;1999.90;;;999.90;;
12577;SDS011;6354;51.026;8.968;2023-04-06T11:39:19;1999.90;;;999.90;;
12577;SDS011;6354;51.026;8.968;2023-04-06T11:41:51;1999.90;;;999.90;;
12577;SDS011;6354;51.026;8.968;2023-04-06T11:44:31;1999.90;;;999.90;;
12577;SDS011;6354;51.026;8.968;2023-04-06T11:47:00;1999.90;;;999.90;;
12577;SDS011;6354;51.026;8.968;2023-04-06T11:49:29;1999.90;;;999.90;;
12577;SDS011;6354;51.026;8.968;2023-04-06T11:51:59;1999.90;;;999.90;;
12577;SDS011;6354;51.026;8.968;2023-04-06T11:54:31;1999.90;;;999.90;;
12577;SDS011;6354;51.026;8.968;2023-04-06T11:57:02;1999.90;;;999.90;;
12577;SDS011;6354;51.026;8.968;2023-04-06T11:59:31;1999.90;;;999.90;;
12577;SDS011;6354;51.026;8.968;2023-04-06T12:02:00;1999.90;;;999.90;;
12577;SDS011;6354;51.026;8.968;2023-04-06T12:04:29;1999.90;;;999.90;;
12577;SDS011;6354;51.026;8.968;2023-04-06T12:06:58;1999.90;;;999.90;;
12577;SDS011;6354;51.026;8.968;2023-04-06T12:09:26;1999.90;;;999.90;;
12577;SDS011;6354;51.026;8.968;2023-04-06T12:11:54;1999.90;;;999.90;;
12577;SDS011;6354;51.026;8.968;2023-04-06T12:14:24;1999.90;;;999.90;;
12577;SDS011;6354;51.026;8.968;2023-04-06T12:16:52;1999.90;;;999.90;;
12577;SDS011;6354;51.026;8.968;2023-04-06T12:19:20;1999.90;;;999.90;;
12577;SDS011;6354;51.026;8.968;2023-04-06T12:21:51;1999.90;;;999.90;;
12577;SDS011;6354;51.026;8.968;2023-04-06T12:24:20;1999.90;;;999.90;;
12577;SDS011;6354;51.026;8.968;2023-04-06T12:26:48;1999.90;;;999.90;;
12577;SDS011;6354;51.026;8.968;2023-04-06T12:29:26;1999.90;;;999.90;;
12577;SDS011;6354;51.026;8.968;2023-04-06T12:31:54;1999.90;;;999.90;;
12577;SDS011;6354;51.026;8.968;2023-04-06T12:34:22;1999.90;;;999.90;;
12577;SDS011;6354;51.026;8.968;2023-04-06T12:36:50;1999.90;;;999.90;;
12577;SDS011;6354;51.026;8.968;2023-04-06T12:39:19;1999.90;;;999.90;;
12577;SDS011;6354;51.026;8.968;2023-04-06T12:41:47;1999.90;;;999.90;;
12577;SDS011;6354;51.026;8.968;2023-04-06T12:44:16;1999.90;;;999.90;;
12577;SDS011;6354;51.026;8.968;2023-04-06T12:46:45;1999.90;;;999.90;;
12577;SDS011;6354;51.026;8.968;2023-04-06T12:49:14;1999.90;;;999.90;;
12577;SDS011;6354;51.026;8.968;2023-04-06T12:51:43;1999.90;;;999.90;;
12577;SDS011;6354;51.026;8.968;2023-04-06T12:54:11;1999.90;;;999.90;;
12577;SDS011;6354;51.026;8.968;2023-04-06T12:56:39;1999.90;;;999.90;;
12577;SDS011;6354;51.026;8.968;2023-04-06T12:59:07;1999.90;;;999.90;;
12577;SDS011;6354;51.026;8.968;2023-04-06T13:01:36;1999.90;;;999.90;;
12577;SDS011;6354;51.026;8.968;2023-04-06T13:04:06;1999.90;;;999.90;;
12577;SDS011;6354;51.026;8.968;2023-04-06T13:06:34;1999.90;;;999.90;;
12577;SDS011;6354;51.026;8.968;2023-04-06T13:09:02;1999.90;;;999.90;;
12577;SDS011;6354;51.026;8.968;2023-04-06T13:11:31;1999.90;;;999.90;;
12577;SDS011;6354;51.026;8.968;2023-04-06T13:13:59;1999.90;;;999.90;;
12577;SDS011;6354;51.026;8.968;2023-04-06T13:16:27;1999.90;;;999.90;;
12577;SDS011;6354;51.026;8.968;2023-04-06T13:18:56;1999.90;;;999.90;;
12577;SDS011;6354;51.026;8.968;2023-04-06T13:21:25;1999.90;;;999.90;;
12577;SDS011;6354;51.026;8.968;2023-04-06T13:23:53;1999.90;;;999.90;;
12577;SDS011;6354;51.026;8.968;2023-04-06T13:26:21;1999.90;;;999.90;;
12577;SDS011;6354;51.026;8.968;2023-04-06T13:28:49;1999.90;;;999.90;;
12577;SDS011;6354;51.026;8.968;2023-04-06T13:31:18;1999.90;;;999.90;;
12577;SDS011;6354;51.026;8.968;2023-04-06T13:33:46;1999.90;;;999.90;;
12577;SDS011;6354;51.026;8.968;2023-04-06T13:36:14;1999.90;;;999.90;;
12577;SDS011;6354;51.026;8.968;2023-04-06T13:38:45;1999.90;;;999.90;;
12577;SDS011;6354;51.026;8.968;2023-04-06T13:41:17;1999.90;;;999.90;;
12577;SDS011;6354;51.026;8.968;2023-04-06T13:43:47;1999.90;;;999.90;;
12577;SDS011;6354;51.026;8.968;2023-04-06T13:46:16;1999.90;;;999.90;;
12577;SDS011;6354;51.026;8.968;2023-04-06T13:48:44;1999.90;;;999.90;;
12577;SDS011;6354;51.026;8.968;2023-04-06T13:51:13;1999.90;;;999.90;;
12577;SDS011;6354;51.026;8.968;2023-04-06T13:53:41;1999.90;;;999.90;;
12577;SDS011;6354;51.026;8.968;2023-04-06T13:56:11;1999.90;;;999.90;;
12577;SDS011;6354;51.026;8.968;2023-04-06T13:58:39;1999.90;;;999.90;;
12577;SDS011;6354;51.026;8.968;2023-04-06T14:01:08;1999.90;;;999.90;;
12577;SDS011;6354;51.026;8.968;2023-04-06T14:03:37;1999.90;;;999.90;;
12577;SDS011;6354;51.026;8.968;2023-04-06T14:06:11;1999.90;;;999.90;;
12577;SDS011;6354;51.026;8.968;2023-04-06T14:08:42;1999.90;;;999.90;;
12577;SDS011;6354;51.026;8.968;2023-04-06T14:11:13;1999.90;;;999.90;;